sensor_id;sensor_type;location;lat;lon;timestamp;pressure;altitude;pressure_sealevel;temperature;humidity
70248;BME280;57641;51.416;5.506;2023-02-03T00:02:00;102662.81;;;12.90;63.65
70248;BME280;57641;51.416;5.506;2023-02-03T00:04:29;102657.00;;;12.85;63.28
70248;BME280;57641;51.416;5.506;2023-02-03T00:06:55;102655.78;;;12.89;63.71
70248;BME280;57641;51.416;5.506;2023-02-03T00:09:21;102652.72;;;12.94;63.16
70248;BME280;57641;51.416;5.506;2023-02-03T00:11:50;102654.56;;;12.71;63.62
70248;BME280;57641;51.416;5.506;2023-02-03T00:14:16;102652.38;;;12.65;63.68
70248;BME280;57641;51.416;5.506;2023-02-03T00:16:42;102648.84;;;12.76;63.73
70248;BME280;57641;51.416;5.506;2023-02-03T00:19:08;102651.75;;;12.95;63.59
70248;BME280;57641;51.416;5.506;2023-02-03T00:21:34;102655.69;;;12.68;63.58
70248;BME280;57641;51.416;5.506;2023-02-03T00:24:00;102648.16;;;12.74;63.28
70248;BME280;57641;51.416;5.506;2023-02-03T00:26:25;102653.13;;;12.78;63.91
70248;BME280;57641;51.416;5.506;2023-02-03T00:28:53;102662.59;;;12.82;63.07
70248;BME280;57641;51.416;5.506;2023-02-03T00:31:21;102656.16;;;12.40;64.29
70248;BME280;57641;51.416;5.506;2023-02-03T00:33:56;102668.81;;;12.60;64.12
70248;BME280;57641;51.416;5.506;2023-02-03T00:36:24;102670.91;;;12.68;63.93
70248;BME280;57641;51.416;5.506;2023-02-03T00:38:55;102656.88;;;12.76;63.67
70248;BME280;57641;51.416;5.506;2023-02-03T00:41:28;102663.94;;;12.54;63.89
70248;BME280;57641;51.416;5.506;2023-02-03T00:43:55;102673.31;;;12.82;63.53
70248;BME280;57641;51.416;5.506;2023-02-03T00:46:21;102678.66;;;12.82;63.57
70248;BME280;57641;51.416;5.506;2023-02-03T00:48:51;102665.28;;;12.60;64.05
70248;BME280;57641;51.416;5.506;2023-02-03T00:51:17;102671.50;;;12.72;63.79
70248;BME280;57641;51.416;5.506;2023-02-03T00:53:43;102672.47;;;12.70;63.66
70248;BME280;57641;51.416;5.506;2023-02-03T00:56:08;102662.88;;;12.68;63.88
70248;BME280;57641;51.416;5.506;2023-02-03T00:58:38;102681.94;;;12.86;63.66
70248;BME280;57641;51.416;5.506;2023-02-03T01:01:04;102677.78;;;12.93;63.16
70248;BME280;57641;51.416;5.506;2023-02-03T01:03:31;102675.22;;;12.91;63.02
70248;BME280;57641;51.416;5.506;2023-02-03T01:06:07;102676.94;;;12.92;63.17
70248;BME280;57641;51.416;5.506;2023-02-03T01:08:33;102694.59;;;12.84;63.28
70248;BME280;57641;51.416;5.506;2023-02-03T01:11:10;102689.25;;;12.73;62.96
70248;BME280;57641;51.416;5.506;2023-02-03T01:13:37;102688.50;;;12.48;63.61
70248;BME280;57641;51.416;5.506;2023-02-03T01:16:07;102687.66;;;12.70;63.40
70248;BME280;57641;51.416;5.506;2023-02-03T01:18:33;102690.22;;;12.72;63.33
70248;BME280;57641;51.416;5.506;2023-02-03T01:21:04;102702.63;;;12.73;63.01
70248;BME280;57641;51.416;5.506;2023-02-03T01:23:30;102692.66;;;12.75;62.94
70248;BME280;57641;51.416;5.506;2023-02-03T01:25:55;102707.63;;;12.66;62.74
70248;BME280;57641;51.416;5.506;2023-02-03T01:28:21;102703.72;;;12.81;62.28
70248;BME280;57641;51.416;5.506;2023-02-03T01:30:46;102704.19;;;12.86;61.66
70248;BME280;57641;51.416;5.506;2023-02-03T01:33:15;102697.28;;;12.73;62.32
70248;BME280;57641;51.416;5.506;2023-02-03T01:35:40;102700.81;;;12.73;62.21
70248;BME280;57641;51.416;5.506;2023-02-03T01:38:06;102689.84;;;12.76;62.03
70248;BME280;57641;51.416;5.506;2023-02-03T01:40:31;102686.31;;;12.76;62.29
70248;BME280;57641;51.416;5.506;2023-02-03T01:42:57;102695.78;;;12.91;61.85
70248;BME280;57641;51.416;5.506;2023-02-03T01:45:23;102690.69;;;12.88;61.89
70248;BME280;57641;51.416;5.506;2023-02-03T01:47:54;102697.50;;;12.92;61.23
70248;BME280;57641;51.416;5.506;2023-02-03T01:50:27;102691.06;;;12.94;61.39
70248;BME280;57641;51.416;5.506;2023-02-03T01:52:59;102707.50;;;12.90;60.72
70248;BME280;57641;51.416;5.506;2023-02-03T01:55:35;102679.91;;;12.67;62.19
70248;BME280;57641;51.416;5.506;2023-02-03T01:58:38;102674.16;;;12.94;61.94
70248;BME280;57641;51.416;5.506;2023-02-03T02:01:00;102662.09;;;12.88;61.25
70248;BME280;57641;51.416;5.506;2023-02-03T02:03:31;102674.63;;;12.99;60.95
70248;BME280;57641;51.416;5.506;2023-02-03T02:06:08;102679.63;;;12.70;62.21
70248;BME280;57641;51.416;5.506;2023-02-03T02:08:35;102662.50;;;12.61;61.78
70248;BME280;57641;51.416;5.506;2023-02-03T02:11:01;102658.38;;;12.68;61.40
70248;BME280;57641;51.416;5.506;2023-02-03T02:13:30;102648.47;;;12.80;61.20
70248;BME280;57641;51.416;5.506;2023-02-03T02:16:29;102634.88;;;12.83;61.13
70248;BME280;57641;51.416;5.506;2023-02-03T02:21:59;102637.06;;;12.78;61.78
70248;BME280;57641;51.416;5.506;2023-02-03T02:33:31;102649.19;;;12.93;61.03
70248;BME280;57641;51.416;5.506;2023-02-03T02:36:23;102645.69;;;12.70;60.81
70248;BME280;57641;51.416;5.506;2023-02-03T02:39:18;102649.72;;;12.65;61.26
70248;BME280;57641;51.416;5.506;2023-02-03T02:41:48;102647.78;;;12.45;61.98
70248;BME280;57641;51.416;5.506;2023-02-03T02:44:34;102650.44;;;12.89;60.99
70248;BME280;57641;51.416;5.506;2023-02-03T02:47:22;102650.47;;;12.56;62.10
70248;BME280;57641;51.416;5.506;2023-02-03T02:50:02;102660.91;;;12.81;60.91
70248;BME280;57641;51.416;5.506;2023-02-03T02:52:33;102678.28;;;12.76;61.04
70248;BME280;57641;51.416;5.506;2023-02-03T02:55:07;102663.19;;;12.86;60.88
70248;BME280;57641;51.416;5.506;2023-02-03T02:57:35;102654.06;;;12.88;60.22
70248;BME280;57641;51.416;5.506;2023-02-03T03:00:14;102643.88;;;12.82;60.46
70248;BME280;57641;51.416;5.506;2023-02-03T03:02:39;102636.28;;;12.98;61.01
70248;BME280;57641;51.416;5.506;2023-02-03T03:05:08;102641.84;;;13.06;60.13
70248;BME280;57641;51.416;5.506;2023-02-03T03:07:41;102643.91;;;13.25;59.65
70248;BME280;57641;51.416;5.506;2023-02-03T03:10:14;102634.91;;;13.26;59.36
70248;BME280;57641;51.416;5.506;2023-02-03T03:12:46;102653.91;;;13.01;60.36
70248;BME280;57641;51.416;5.506;2023-02-03T03:15:21;102659.03;;;13.04;60.04
70248;BME280;57641;51.416;5.506;2023-02-03T03:18:00;102663.56;;;12.92;59.93
70248;BME280;57641;51.416;5.506;2023-02-03T03:20:30;102669.75;;;13.04;60.45
70248;BME280;57641;51.416;5.506;2023-02-03T03:23:06;102663.19;;;12.86;60.11
70248;BME280;57641;51.416;5.506;2023-02-03T03:26:11;102654.19;;;12.98;59.82
70248;BME280;57641;51.416;5.506;2023-02-03T03:28:56;102651.69;;;12.74;60.53
70248;BME280;57641;51.416;5.506;2023-02-03T03:31:23;102636.81;;;12.70;60.73
70248;BME280;57641;51.416;5.506;2023-02-03T03:33:49;102647.63;;;12.80;61.13
70248;BME280;57641;51.416;5.506;2023-02-03T03:36:34;102643.19;;;13.01;59.87
70248;BME280;57641;51.416;5.506;2023-02-03T03:39:21;102633.63;;;12.87;60.04
70248;BME280;57641;51.416;5.506;2023-02-03T03:44:15;102643.66;;;12.74;60.68
70248;BME280;57641;51.416;5.506;2023-02-03T03:47:02;102638.97;;;12.87;60.01
70248;BME280;57641;51.416;5.506;2023-02-03T03:49:32;102628.56;;;12.73;60.17
70248;BME280;57641;51.416;5.506;2023-02-03T03:52:05;102631.47;;;12.70;60.05
70248;BME280;57641;51.416;5.506;2023-02-03T03:54:33;102626.16;;;13.02;59.33
70248;BME280;57641;51.416;5.506;2023-02-03T03:57:27;102609.72;;;13.06;59.26
70248;BME280;57641;51.416;5.506;2023-02-03T03:59:56;102597.84;;;12.99;59.40
70248;BME280;57641;51.416;5.506;2023-02-03T04:02:23;102608.88;;;13.17;59.46
70248;BME280;57641;51.416;5.506;2023-02-03T04:04:49;102608.22;;;12.82;59.55
70248;BME280;57641;51.416;5.506;2023-02-03T04:07:22;102623.78;;;12.88;59.88
70248;BME280;57641;51.416;5.506;2023-02-03T04:09:47;102617.44;;;12.89;60.13
70248;BME280;57641;51.416;5.506;2023-02-03T04:12:23;102621.94;;;12.99;59.37
70248;BME280;57641;51.416;5.506;2023-02-03T04:14:51;102624.47;;;13.01;59.28
70248;BME280;57641;51.416;5.506;2023-02-03T04:17:26;102637.44;;;12.85;59.89
70248;BME280;57641;51.416;5.506;2023-02-03T04:19:52;102644.25;;;12.66;59.87
70248;BME280;57641;51.416;5.506;2023-02-03T04:22:18;102645.22;;;12.65;59.73
70248;BME280;57641;51.416;5.506;2023-02-03T04:24:43;102634.88;;;12.72;60.35
70248;BME280;57641;51.416;5.506;2023-02-03T04:27:09;102623.09;;;13.06;58.54
70248;BME280;57641;51.416;5.506;2023-02-03T04:29:35;102644.63;;;12.62;59.94
70248;BME280;57641;51.416;5.506;2023-02-03T04:32:02;102642.72;;;12.96;58.82
70248;BME280;57641;51.416;5.506;2023-02-03T04:34:27;102648.94;;;12.96;59.21
70248;BME280;57641;51.416;5.506;2023-02-03T04:36:53;102653.91;;;13.23;58.17
70248;BME280;57641;51.416;5.506;2023-02-03T04:39:19;102665.84;;;13.19;58.64
70248;BME280;57641;51.416;5.506;2023-02-03T04:41:45;102672.88;;;13.31;57.79
70248;BME280;57641;51.416;5.506;2023-02-03T04:44:10;102658.47;;;12.89;59.08
70248;BME280;57641;51.416;5.506;2023-02-03T04:46:37;102650.50;;;13.10;58.24
70248;BME280;57641;51.416;5.506;2023-02-03T04:49:08;102658.19;;;13.15;57.85
70248;BME280;57641;51.416;5.506;2023-02-03T04:51:36;102664.38;;;13.26;57.54
70248;BME280;57641;51.416;5.506;2023-02-03T04:54:02;102651.84;;;13.27;57.69
70248;BME280;57641;51.416;5.506;2023-02-03T04:56:27;102650.28;;;13.45;57.55
70248;BME280;57641;51.416;5.506;2023-02-03T04:58:56;102644.59;;;13.38;57.12
70248;BME280;57641;51.416;5.506;2023-02-03T05:01:22;102636.53;;;13.38;56.84
70248;BME280;57641;51.416;5.506;2023-02-03T05:03:47;102638.28;;;13.28;57.96
70248;BME280;57641;51.416;5.506;2023-02-03T05:06:21;102637.28;;;13.40;57.08
70248;BME280;57641;51.416;5.506;2023-02-03T05:08:47;102634.31;;;13.43;57.39
70248;BME280;57641;51.416;5.506;2023-02-03T05:11:13;102628.03;;;13.33;57.32
70248;BME280;57641;51.416;5.506;2023-02-03T05:13:38;102621.56;;;13.47;57.51
70248;BME280;57641;51.416;5.506;2023-02-03T05:16:05;102606.31;;;13.27;57.46
70248;BME280;57641;51.416;5.506;2023-02-03T05:18:30;102633.47;;;13.11;57.68
70248;BME280;57641;51.416;5.506;2023-02-03T05:20:57;102617.03;;;13.47;57.77
70248;BME280;57641;51.416;5.506;2023-02-03T05:23:22;102627.34;;;13.31;58.13
70248;BME280;57641;51.416;5.506;2023-02-03T05:25:48;102630.56;;;13.03;58.51
70248;BME280;57641;51.416;5.506;2023-02-03T05:28:13;102638.91;;;13.32;57.59
70248;BME280;57641;51.416;5.506;2023-02-03T05:30:39;102649.94;;;13.38;57.60
70248;BME280;57641;51.416;5.506;2023-02-03T05:33:05;102636.25;;;13.21;57.78
70248;BME280;57641;51.416;5.506;2023-02-03T05:35:32;102653.19;;;13.10;58.43
70248;BME280;57641;51.416;5.506;2023-02-03T05:37:57;102649.31;;;13.14;58.35
70248;BME280;57641;51.416;5.506;2023-02-03T05:40:24;102656.22;;;13.17;58.32
70248;BME280;57641;51.416;5.506;2023-02-03T05:43:09;102664.03;;;13.20;58.27
70248;BME280;57641;51.416;5.506;2023-02-03T05:45:34;102672.41;;;13.26;57.83
70248;BME280;57641;51.416;5.506;2023-02-03T05:48:03;102664.50;;;13.25;58.34
70248;BME280;57641;51.416;5.506;2023-02-03T05:50:29;102667.19;;;13.14;57.98
70248;BME280;57641;51.416;5.506;2023-02-03T05:53:05;102660.47;;;13.30;58.22
70248;BME280;57641;51.416;5.506;2023-02-03T05:55:32;102663.22;;;13.40;57.96
70248;BME280;57641;51.416;5.506;2023-02-03T05:57:58;102668.53;;;13.19;58.19
70248;BME280;57641;51.416;5.506;2023-02-03T06:00:26;102654.84;;;13.33;57.87
70248;BME280;57641;51.416;5.506;2023-02-03T06:02:57;102661.97;;;13.12;58.33
70248;BME280;57641;51.416;5.506;2023-02-03T06:05:24;102658.06;;;13.16;58.26
70248;BME280;57641;51.416;5.506;2023-02-03T06:07:50;102654.66;;;13.14;58.47
70248;BME280;57641;51.416;5.506;2023-02-03T06:10:18;102670.94;;;13.22;58.02
70248;BME280;57641;51.416;5.506;2023-02-03T06:12:43;102659.63;;;13.19;57.63
70248;BME280;57641;51.416;5.506;2023-02-03T06:15:10;102672.16;;;13.29;57.69
70248;BME280;57641;51.416;5.506;2023-02-03T06:17:36;102667.25;;;13.34;57.97
70248;BME280;57641;51.416;5.506;2023-02-03T06:20:06;102668.56;;;13.40;57.22
70248;BME280;57641;51.416;5.506;2023-02-03T06:22:33;102670.44;;;13.28;58.09
70248;BME280;57641;51.416;5.506;2023-02-03T06:24:59;102670.22;;;13.20;58.73
70248;BME280;57641;51.416;5.506;2023-02-03T06:27:25;102656.59;;;13.01;58.30
70248;BME280;57641;51.416;5.506;2023-02-03T06:29:51;102661.19;;;13.32;57.93
70248;BME280;57641;51.416;5.506;2023-02-03T06:32:17;102665.47;;;13.24;58.23
70248;BME280;57641;51.416;5.506;2023-02-03T06:34:42;102672.66;;;13.12;58.40
70248;BME280;57641;51.416;5.506;2023-02-03T06:37:08;102664.53;;;12.80;59.42
70248;BME280;57641;51.416;5.506;2023-02-03T06:39:34;102668.69;;;12.73;59.28
70248;BME280;57641;51.416;5.506;2023-02-03T06:42:01;102661.47;;;12.96;58.89
70248;BME280;57641;51.416;5.506;2023-02-03T06:44:26;102642.03;;;12.83;59.39
70248;BME280;57641;51.416;5.506;2023-02-03T06:46:52;102642.13;;;13.15;58.75
70248;BME280;57641;51.416;5.506;2023-02-03T06:49:18;102641.53;;;13.00;59.02
70248;BME280;57641;51.416;5.506;2023-02-03T06:51:44;102662.09;;;12.99;58.74
70248;BME280;57641;51.416;5.506;2023-02-03T06:54:11;102657.84;;;12.86;58.82
70248;BME280;57641;51.416;5.506;2023-02-03T06:56:38;102660.97;;;13.02;58.76
70248;BME280;57641;51.416;5.506;2023-02-03T06:59:07;102661.84;;;13.02;58.01
70248;BME280;57641;51.416;5.506;2023-02-03T07:01:35;102666.19;;;13.26;57.96
70248;BME280;57641;51.416;5.506;2023-02-03T07:04:00;102648.63;;;13.33;57.86
70248;BME280;57641;51.416;5.506;2023-02-03T07:06:27;102648.59;;;13.44;57.41
70248;BME280;57641;51.416;5.506;2023-02-03T07:09:00;102639.06;;;13.08;58.29
70248;BME280;57641;51.416;5.506;2023-02-03T07:11:27;102651.56;;;13.30;57.88
70248;BME280;57641;51.416;5.506;2023-02-03T07:13:53;102671.56;;;13.03;58.30
70248;BME280;57641;51.416;5.506;2023-02-03T07:16:19;102669.38;;;13.08;57.98
70248;BME280;57641;51.416;5.506;2023-02-03T07:18:45;102683.34;;;13.23;57.67
70248;BME280;57641;51.416;5.506;2023-02-03T07:21:12;102686.69;;;13.16;58.31
70248;BME280;57641;51.416;5.506;2023-02-03T07:23:39;102698.56;;;13.23;57.82
70248;BME280;57641;51.416;5.506;2023-02-03T07:26:06;102691.63;;;13.31;57.79
70248;BME280;57641;51.416;5.506;2023-02-03T07:28:35;102694.56;;;13.17;58.41
70248;BME280;57641;51.416;5.506;2023-02-03T07:31:01;102693.59;;;13.18;58.87
70248;BME280;57641;51.416;5.506;2023-02-03T07:33:32;102700.00;;;13.38;58.09
70248;BME280;57641;51.416;5.506;2023-02-03T07:35:58;102697.22;;;13.28;58.10
70248;BME280;57641;51.416;5.506;2023-02-03T07:38:26;102683.25;;;13.02;59.14
70248;BME280;57641;51.416;5.506;2023-02-03T07:40:52;102692.41;;;13.00;59.59
70248;BME280;57641;51.416;5.506;2023-02-03T07:43:22;102675.59;;;12.87;59.77
70248;BME280;57641;51.416;5.506;2023-02-03T07:45:48;102680.19;;;13.07;59.16
70248;BME280;57641;51.416;5.506;2023-02-03T07:48:13;102685.34;;;12.99;59.46
70248;BME280;57641;51.416;5.506;2023-02-03T07:50:39;102686.69;;;13.16;58.68
70248;BME280;57641;51.416;5.506;2023-02-03T07:53:05;102685.34;;;12.88;59.66
70248;BME280;57641;51.416;5.506;2023-02-03T07:55:32;102695.16;;;13.32;58.61
70248;BME280;57641;51.416;5.506;2023-02-03T07:57:59;102699.81;;;13.19;58.94
70248;BME280;57641;51.416;5.506;2023-02-03T08:00:24;102699.56;;;12.99;59.43
70248;BME280;57641;51.416;5.506;2023-02-03T08:02:50;102707.84;;;12.85;59.83
70248;BME280;57641;51.416;5.506;2023-02-03T08:05:16;102702.38;;;12.87;59.41
70248;BME280;57641;51.416;5.506;2023-02-03T08:07:44;102703.34;;;12.86;59.55
70248;BME280;57641;51.416;5.506;2023-02-03T08:10:13;102715.88;;;13.07;59.48
70248;BME280;57641;51.416;5.506;2023-02-03T08:12:42;102699.47;;;12.79;60.47
70248;BME280;57641;51.416;5.506;2023-02-03T08:15:13;102704.81;;;13.12;59.44
70248;BME280;57641;51.416;5.506;2023-02-03T08:17:39;102697.00;;;13.20;59.38
70248;BME280;57641;51.416;5.506;2023-02-03T08:20:10;102712.22;;;13.31;59.08
70248;BME280;57641;51.416;5.506;2023-02-03T08:22:41;102714.88;;;13.42;58.54
70248;BME280;57641;51.416;5.506;2023-02-03T08:25:08;102720.47;;;13.28;59.45
70248;BME280;57641;51.416;5.506;2023-02-03T08:27:37;102742.72;;;13.50;58.12
70248;BME280;57641;51.416;5.506;2023-02-03T08:30:14;102735.00;;;13.14;59.46
70248;BME280;57641;51.416;5.506;2023-02-03T08:32:39;102744.47;;;13.18;59.57
70248;BME280;57641;51.416;5.506;2023-02-03T08:35:07;102726.47;;;13.31;59.25
70248;BME280;57641;51.416;5.506;2023-02-03T08:37:32;102723.03;;;13.40;59.05
70248;BME280;57641;51.416;5.506;2023-02-03T08:40:10;102733.03;;;13.05;60.48
70248;BME280;57641;51.416;5.506;2023-02-03T08:42:36;102728.78;;;13.14;59.94
70248;BME280;57641;51.416;5.506;2023-02-03T08:45:02;102745.19;;;13.42;59.18
70248;BME280;57641;51.416;5.506;2023-02-03T08:47:31;102755.47;;;13.15;59.82
70248;BME280;57641;51.416;5.506;2023-02-03T08:49:57;102754.34;;;13.29;59.44
70248;BME280;57641;51.416;5.506;2023-02-03T08:52:23;102761.13;;;13.33;59.29
70248;BME280;57641;51.416;5.506;2023-02-03T08:54:49;102763.81;;;13.33;59.83
70248;BME280;57641;51.416;5.506;2023-02-03T08:57:15;102769.31;;;13.42;59.25
70248;BME280;57641;51.416;5.506;2023-02-03T08:59:42;102770.50;;;13.38;59.83
70248;BME280;57641;51.416;5.506;2023-02-03T09:02:13;102772.34;;;13.38;59.39
70248;BME280;57641;51.416;5.506;2023-02-03T09:04:44;102754.84;;;13.11;59.93
70248;BME280;57641;51.416;5.506;2023-02-03T09:07:10;102755.56;;;13.14;60.16
70248;BME280;57641;51.416;5.506;2023-02-03T09:09:38;102755.81;;;13.10;60.40
70248;BME280;57641;51.416;5.506;2023-02-03T09:12:05;102751.06;;;13.14;60.14
70248;BME280;57641;51.416;5.506;2023-02-03T09:14:32;102764.31;;;13.04;60.68
70248;BME280;57641;51.416;5.506;2023-02-03T09:17:03;102741.34;;;12.68;62.02
70248;BME280;57641;51.416;5.506;2023-02-03T09:19:31;102765.53;;;12.78;61.99
70248;BME280;57641;51.416;5.506;2023-02-03T09:21:57;102752.50;;;13.07;60.95
70248;BME280;57641;51.416;5.506;2023-02-03T09:24:23;102750.81;;;12.73;62.42
70248;BME280;57641;51.416;5.506;2023-02-03T09:26:49;102753.59;;;12.60;62.82
70248;BME280;57641;51.416;5.506;2023-02-03T09:29:36;102751.53;;;12.75;62.51
70248;BME280;57641;51.416;5.506;2023-02-03T09:32:02;102761.28;;;12.87;61.83
70248;BME280;57641;51.416;5.506;2023-02-03T09:34:31;102778.69;;;12.92;61.46
70248;BME280;57641;51.416;5.506;2023-02-03T09:37:00;102757.63;;;13.10;61.59
70248;BME280;57641;51.416;5.506;2023-02-03T09:39:26;102778.19;;;12.98;62.07
70248;BME280;57641;51.416;5.506;2023-02-03T09:47:37;102787.53;;;12.70;62.72
70248;BME280;57641;51.416;5.506;2023-02-03T09:50:39;102784.13;;;12.57;63.23
70248;BME280;57641;51.416;5.506;2023-02-03T09:55:52;102788.53;;;13.03;62.18
70248;BME280;57641;51.416;5.506;2023-02-03T09:58:18;102793.88;;;13.03;62.27
70248;BME280;57641;51.416;5.506;2023-02-03T10:01:01;102809.25;;;13.23;61.51
70248;BME280;57641;51.416;5.506;2023-02-03T10:17:50;102796.69;;;13.01;62.27
70248;BME280;57641;51.416;5.506;2023-02-03T10:20:52;102781.34;;;12.92;62.26
70248;BME280;57641;51.416;5.506;2023-02-03T10:25:54;102774.91;;;13.28;62.31
70248;BME280;57641;51.416;5.506;2023-02-03T10:28:24;102786.94;;;13.45;61.73
70248;BME280;57641;51.416;5.506;2023-02-03T10:30:59;102780.13;;;12.96;62.84
70248;BME280;57641;51.416;5.506;2023-02-03T10:33:31;102791.72;;;13.41;61.83
70248;BME280;57641;51.416;5.506;2023-02-03T10:36:02;102796.19;;;13.63;61.30
70248;BME280;57641;51.416;5.506;2023-02-03T10:38:50;102789.50;;;13.46;61.31
70248;BME280;57641;51.416;5.506;2023-02-03T10:41:21;102780.59;;;13.57;61.65
70248;BME280;57641;51.416;5.506;2023-02-03T10:43:51;102778.44;;;13.40;61.87
70248;BME280;57641;51.416;5.506;2023-02-03T10:46:27;102776.59;;;13.51;61.60
70248;BME280;57641;51.416;5.506;2023-02-03T10:51:46;102784.63;;;13.51;60.85
70248;BME280;57641;51.416;5.506;2023-02-03T10:54:27;102802.53;;;13.51;61.25
70248;BME280;57641;51.416;5.506;2023-02-03T10:56:54;102786.97;;;13.77;60.82
70248;BME280;57641;51.416;5.506;2023-02-03T10:59:28;102798.91;;;13.84;60.60
70248;BME280;57641;51.416;5.506;2023-02-03T11:01:54;102792.44;;;13.86;60.51
70248;BME280;57641;51.416;5.506;2023-02-03T11:04:26;102785.50;;;13.84;59.86
70248;BME280;57641;51.416;5.506;2023-02-03T11:06:58;102776.41;;;13.96;60.69
70248;BME280;57641;51.416;5.506;2023-02-03T11:09:38;102793.13;;;13.68;60.95
70248;BME280;57641;51.416;5.506;2023-02-03T11:12:16;102801.16;;;13.68;60.84
70248;BME280;57641;51.416;5.506;2023-02-03T11:14:51;102802.09;;;13.78;61.07
70248;BME280;57641;51.416;5.506;2023-02-03T11:17:19;102790.63;;;13.76;60.61
70248;BME280;57641;51.416;5.506;2023-02-03T11:19:49;102800.78;;;13.61;61.46
70248;BME280;57641;51.416;5.506;2023-02-03T11:22:35;102799.47;;;13.99;60.26
70248;BME280;57641;51.416;5.506;2023-02-03T11:25:15;102797.25;;;13.61;61.46
70248;BME280;57641;51.416;5.506;2023-02-03T11:27:42;102803.41;;;13.83;60.75
70248;BME280;57641;51.416;5.506;2023-02-03T11:30:25;102807.97;;;13.61;61.16
70248;BME280;57641;51.416;5.506;2023-02-03T11:32:59;102797.66;;;13.45;62.26
70248;BME280;57641;51.416;5.506;2023-02-03T11:35:27;102796.56;;;13.47;62.10
70248;BME280;57641;51.416;5.506;2023-02-03T11:37:59;102798.88;;;13.52;61.43
70248;BME280;57641;51.416;5.506;2023-02-03T11:45:42;102798.91;;;13.84;60.85
70248;BME280;57641;51.416;5.506;2023-02-03T11:51:03;102793.41;;;13.85;61.15
70248;BME280;57641;51.416;5.506;2023-02-03T11:59:35;102807.59;;;13.65;61.06
70248;BME280;57641;51.416;5.506;2023-02-03T12:05:49;102809.00;;;13.80;61.69
70248;BME280;57641;51.416;5.506;2023-02-03T12:20:05;102804.63;;;13.90;61.87
70248;BME280;57641;51.416;5.506;2023-02-03T12:30:51;102805.25;;;14.15;60.28
70248;BME280;57641;51.416;5.506;2023-02-03T12:33:29;102807.31;;;13.90;60.98
70248;BME280;57641;51.416;5.506;2023-02-03T12:36:14;102802.88;;;14.01;60.82
70248;BME280;57641;51.416;5.506;2023-02-03T12:41:30;102803.75;;;14.22;60.47
70248;BME280;57641;51.416;5.506;2023-02-03T12:44:07;102813.84;;;14.29;59.77
70248;BME280;57641;51.416;5.506;2023-02-03T12:47:17;102819.88;;;14.22;60.19
70248;BME280;57641;51.416;5.506;2023-02-03T12:49:51;102825.28;;;14.11;60.06
70248;BME280;57641;51.416;5.506;2023-02-03T12:55:07;102838.63;;;14.22;60.11
70248;BME280;57641;51.416;5.506;2023-02-03T12:57:57;102833.28;;;14.22;60.13
70248;BME280;57641;51.416;5.506;2023-02-03T13:00:45;102838.44;;;14.03;60.43
70248;BME280;57641;51.416;5.506;2023-02-03T13:03:40;102829.16;;;14.07;60.34
70248;BME280;57641;51.416;5.506;2023-02-03T13:07:03;102829.63;;;14.12;60.75
70248;BME280;57641;51.416;5.506;2023-02-03T13:09:17;102829.59;;;14.23;60.04
70248;BME280;57641;51.416;5.506;2023-02-03T13:14:50;102835.19;;;13.99;60.56
70248;BME280;57641;51.416;5.506;2023-02-03T13:17:30;102832.81;;;14.17;60.59
70248;BME280;57641;51.416;5.506;2023-02-03T13:20:03;102831.19;;;14.25;60.00
70248;BME280;57641;51.416;5.506;2023-02-03T13:22:31;102833.31;;;14.11;60.65
70248;BME280;57641;51.416;5.506;2023-02-03T13:25:08;102828.38;;;14.27;59.64
70248;BME280;57641;51.416;5.506;2023-02-03T13:28:09;102835.09;;;14.53;59.62
70248;BME280;57641;51.416;5.506;2023-02-03T13:31:04;102830.03;;;14.60;59.32
70248;BME280;57641;51.416;5.506;2023-02-03T13:41:44;102838.38;;;14.25;60.27
70248;BME280;57641;51.416;5.506;2023-02-03T13:44:18;102853.97;;;14.31;60.16
70248;BME280;57641;51.416;5.506;2023-02-03T13:46:57;102843.22;;;14.42;59.54
70248;BME280;57641;51.416;5.506;2023-02-03T13:49:29;102837.50;;;14.56;59.57
70248;BME280;57641;51.416;5.506;2023-02-03T13:51:56;102845.44;;;14.58;59.70
70248;BME280;57641;51.416;5.506;2023-02-03T13:54:42;102848.19;;;14.47;59.50
70248;BME280;57641;51.416;5.506;2023-02-03T13:57:36;102846.03;;;14.61;59.12
70248;BME280;57641;51.416;5.506;2023-02-03T14:00:10;102856.19;;;14.78;58.41
70248;BME280;57641;51.416;5.506;2023-02-03T14:02:55;102841.31;;;14.74;58.75
70248;BME280;57641;51.416;5.506;2023-02-03T14:05:45;102855.25;;;14.68;59.00
70248;BME280;57641;51.416;5.506;2023-02-03T14:22:04;102860.88;;;14.65;58.66
70248;BME280;57641;51.416;5.506;2023-02-03T14:24:40;102854.81;;;14.31;59.57
70248;BME280;57641;51.416;5.506;2023-02-03T14:27:19;102849.16;;;14.66;59.61
70248;BME280;57641;51.416;5.506;2023-02-03T14:29:45;102854.00;;;14.52;59.94
70248;BME280;57641;51.416;5.506;2023-02-03T14:35:17;102854.28;;;14.69;58.91
70248;BME280;57641;51.416;5.506;2023-02-03T14:37:57;102849.38;;;14.74;58.78
70248;BME280;57641;51.416;5.506;2023-02-03T14:40:49;102860.34;;;14.51;59.58
70248;BME280;57641;51.416;5.506;2023-02-03T14:46:10;102855.09;;;14.49;60.14
70248;BME280;57641;51.416;5.506;2023-02-03T14:49:09;102860.41;;;14.60;59.73
70248;BME280;57641;51.416;5.506;2023-02-03T15:07:56;102887.00;;;14.31;61.26
70248;BME280;57641;51.416;5.506;2023-02-03T15:10:43;102880.63;;;14.44;61.11
70248;BME280;57641;51.416;5.506;2023-02-03T15:15:52;102883.16;;;14.56;61.36
70248;BME280;57641;51.416;5.506;2023-02-03T15:18:28;102892.31;;;14.54;61.68
70248;BME280;57641;51.416;5.506;2023-02-03T15:20:56;102892.13;;;14.66;61.92
70248;BME280;57641;51.416;5.506;2023-02-03T15:23:37;102896.44;;;14.58;62.05
70248;BME280;57641;51.416;5.506;2023-02-03T15:26:12;102884.28;;;14.11;62.74
70248;BME280;57641;51.416;5.506;2023-02-03T15:28:41;102891.91;;;14.38;62.18